Time;durP1;ratioP1;P1;durP2;ratioP2;P2;SDS_P1;SDS_P2;PMS_P1;PMS_P2;Temp;Humidity;BMP_temperature;BMP_pressure;BME280_temperature;BME280_humidity;BME280_pressure;Samples;Min_cycle;Max_cycle;Signal;HPM_P1;HPM_P2
2023/10/12 00:01:39;;;;;;;9.60;9.30;;;13.30;99.90;;;;;;5131046;28;20228;-82
2023/10/12 00:04:11;;;;;;;9.50;9.20;;;13.30;99.90;;;;;;5128947;28;20213;-82
2023/10/12 00:06:43;;;;;;;9.63;9.33;;;13.20;99.90;;;;;;5128790;28;20280;-82
2023/10/12 00:09:19;;;;;;;9.57;9.27;;;13.20;99.90;;;;;;5128458;28;20241;-82
2023/10/12 00:11:56;;;;;;;9.90;9.60;;;13.20;99.90;;;;;;5128155;28;20239;-82
2023/10/12 00:17:19;;;;;;;9.90;9.60;;;13.10;99.90;;;;;;5127616;27;20721;-82
2023/10/12 00:19:49;;;;;;;9.60;9.30;;;13.10;99.90;;;;;;5128776;28;20224;-82
2023/10/12 00:22:28;;;;;;;9.70;9.40;;;13.00;99.90;;;;;;5128069;27;20237;-82
2023/10/12 00:24:59;;;;;;;9.80;9.50;;;12.90;99.90;;;;;;5128156;28;20217;-82
2023/10/12 00:27:26;;;;;;;9.60;9.30;;;12.90;99.90;;;;;;5128715;28;21006;-82
2023/10/12 00:30:06;;;;;;;9.60;9.30;;;12.90;99.90;;;;;;5128845;28;20233;-82
2023/10/12 00:32:33;;;;;;;9.70;9.40;;;12.90;99.90;;;;;;5135431;28;20240;-82
2023/10/12 00:37:43;;;;;;;9.50;9.20;;;12.90;99.90;;;;;;5128604;28;20217;-82
2023/10/12 00:43:17;;;;;;;9.70;9.40;;;12.90;99.90;;;;;;5129815;28;20244;-82
2023/10/12 00:45:46;;;;;;;9.43;9.13;;;12.90;99.90;;;;;;5128501;28;20228;-82
2023/10/12 00:48:30;;;;;;;9.47;9.17;;;12.90;99.90;;;;;;5127735;28;20225;-83
2023/10/12 00:51:11;;;;;;;9.47;9.17;;;12.90;99.90;;;;;;5128173;28;20278;-83
2023/10/12 00:53:55;;;;;;;9.30;9.00;;;12.90;99.90;;;;;;5127751;28;20212;-82
2023/10/12 00:56:30;;;;;;;9.63;9.33;;;12.90;99.90;;;;;;5128229;28;20232;-82
2023/10/12 00:58:58;;;;;;;9.30;9.00;;;12.90;99.90;;;;;;5132270;28;20220;-82
2023/10/12 01:01:27;;;;;;;9.20;8.90;;;12.90;99.90;;;;;;5141403;27;20233;-80
2023/10/12 01:04:15;;;;;;;9.30;9.00;;;12.90;99.90;;;;;;5141217;27;20212;-81
2023/10/12 01:06:44;;;;;;;9.67;9.37;;;12.90;99.90;;;;;;5141047;27;20220;-81
2023/10/12 01:11:58;;;;;;;9.70;9.40;;;12.90;99.90;;;;;;5128446;28;20221;-82
2023/10/12 01:14:32;;;;;;;9.50;9.20;;;12.90;99.90;;;;;;5130955;28;20251;-82
2023/10/12 01:17:04;;;;;;;9.70;9.40;;;12.90;99.90;;;;;;5130435;28;20280;-82
2023/10/12 01:19:44;;;;;;;9.50;9.20;;;12.80;99.90;;;;;;5129574;28;20233;-83
2023/10/12 01:22:25;;;;;;;9.37;9.07;;;12.90;99.90;;;;;;5137402;28;20232;-82
2023/10/12 01:27:41;;;;;;;9.47;9.17;;;12.80;99.90;;;;;;5132259;28;20285;-83
2023/10/12 01:32:57;;;;;;;9.50;9.20;;;12.70;99.90;;;;;;5130555;28;20232;-82
2023/10/12 01:35:32;;;;;;;9.77;9.47;;;12.80;99.90;;;;;;5133243;28;20236;-82
2023/10/12 01:38:14;;;;;;;9.80;9.50;;;12.80;99.90;;;;;;5132198;28;20236;-82
2023/10/12 01:40:52;;;;;;;9.60;9.30;;;12.70;99.90;;;;;;5130086;28;20228;-82
2023/10/12 01:43:21;;;;;;;9.70;9.40;;;12.70;99.90;;;;;;5130441;28;20220;-82
2023/10/12 01:46:01;;;;;;;9.60;9.30;;;12.70;99.90;;;;;;5130164;28;20278;-83
2023/10/12 01:48:33;;;;;;;9.60;9.30;;;12.70;99.90;;;;;;5129982;28;20323;-83
2023/10/12 01:51:24;;;;;;;9.70;9.40;;;12.70;99.90;;;;;;5130712;28;20216;-83
2023/10/12 01:53:57;;;;;;;9.40;9.10;;;12.70;99.90;;;;;;5129606;28;20221;-83
2023/10/12 01:56:28;;;;;;;9.60;9.30;;;12.70;99.90;;;;;;5132774;28;20216;-82
2023/10/12 01:58:55;;;;;;;9.43;9.13;;;12.60;99.90;;;;;;5139738;27;20217;-82
2023/10/12 02:01:24;;;;;;;9.50;9.20;;;12.60;99.90;;;;;;5139266;28;20223;-82
2023/10/12 02:03:55;;;;;;;9.50;9.20;;;12.60;99.90;;;;;;5134377;28;20328;-82
2023/10/12 02:06:28;;;;;;;9.50;9.20;;;12.50;99.90;;;;;;5131089;28;20255;-83
2023/10/12 02:09:09;;;;;;;9.07;8.77;;;12.60;99.90;;;;;;5128674;27;20294;-82
2023/10/12 02:11:42;;;;;;;9.20;8.90;;;12.60;99.90;;;;;;5122815;28;20225;-82
2023/10/12 02:16:54;;;;;;;9.07;8.77;;;12.50;99.90;;;;;;5128929;28;20233;-82
2023/10/12 02:19:36;;;;;;;9.30;9.00;;;12.50;99.90;;;;;;5129387;27;20328;-82
2023/10/12 02:22:04;;;;;;;9.20;8.90;;;12.50;99.90;;;;;;5129686;28;20235;-83
2023/10/12 02:27:27;;;;;;;9.20;8.90;;;12.50;99.90;;;;;;5119770;28;20233;-83
2023/10/12 02:30:07;;;;;;;9.50;9.20;;;12.50;99.90;;;;;;5129004;28;20232;-82
2023/10/12 02:32:47;;;;;;;9.40;9.10;;;12.50;99.90;;;;;;5129172;28;20223;-84
2023/10/12 02:35:19;;;;;;;9.53;9.23;;;12.60;99.90;;;;;;5131678;28;20262;-83
2023/10/12 02:37:47;;;;;;;9.53;9.23;;;12.60;99.90;;;;;;5135738;28;20257;-83
2023/10/12 02:40:16;;;;;;;9.23;8.93;;;12.70;99.90;;;;;;5130882;28;20287;-83
2023/10/12 02:42:46;;;;;;;9.30;9.00;;;12.70;99.90;;;;;;5130355;28;20248;-84
2023/10/12 02:48:13;;;;;;;9.00;8.70;;;12.80;99.90;;;;;;5128906;28;20233;-82
2023/10/12 02:50:57;;;;;;;9.20;8.90;;;12.80;99.90;;;;;;5109333;28;20229;-83
2023/10/12 02:53:28;;;;;;;9.20;8.90;;;12.90;99.90;;;;;;5128615;28;20224;-83
2023/10/12 02:58:50;;;;;;;9.40;9.10;;;13.00;99.90;;;;;;5127926;28;20278;-83
2023/10/12 03:01:21;;;;;;;9.60;9.30;;;13.00;99.90;;;;;;5129119;28;20263;-83
2023/10/12 03:03:49;;;;;;;9.40;9.10;;;13.00;99.90;;;;;;5128633;28;20712;-83
2023/10/12 03:06:22;;;;;;;9.30;9.00;;;13.10;99.90;;;;;;5129018;28;20233;-83
2023/10/12 03:09:14;;;;;;;9.37;9.07;;;13.10;99.90;;;;;;5126295;27;20259;-83
2023/10/12 03:14:40;;;;;;;9.60;9.30;;;13.20;99.90;;;;;;5127892;28;20252;-82
2023/10/12 03:17:09;;;;;;;9.50;9.20;;;13.20;99.90;;;;;;5125617;27;20228;-83
2023/10/12 03:19:46;;;;;;;9.50;9.20;;;13.20;99.90;;;;;;5128830;28;20323;-82
2023/10/12 03:22:23;;;;;;;9.60;9.30;;;13.20;99.90;;;;;;5127949;28;20266;-83
2023/10/12 03:27:35;;;;;;;9.80;9.50;;;13.30;99.90;;;;;;5133637;28;20236;-82
2023/10/12 03:30:07;;;;;;;9.60;9.30;;;13.30;99.90;;;;;;5125011;27;20247;-83
2023/10/12 03:32:34;;;;;;;9.40;9.10;;;13.30;99.90;;;;;;5126253;28;20633;-83
2023/10/12 03:35:04;;;;;;;9.23;8.93;;;13.40;99.90;;;;;;5112018;28;20214;-83
2023/10/12 03:37:45;;;;;;;9.20;8.90;;;13.40;99.90;;;;;;5118660;28;20228;-83
2023/10/12 03:46:00;;;;;;;9.40;9.10;;;13.50;99.90;;;;;;5130879;28;20228;-82
2023/10/12 03:56:38;;;;;;;9.20;8.90;;;13.50;99.90;;;;;;5128192;28;20220;-83
2023/10/12 04:02:00;;;;;;;9.40;9.10;;;13.60;99.90;;;;;;5128865;28;20220;-83
2023/10/12 04:04:29;;;;;;;9.40;9.10;;;13.60;99.90;;;;;;5127944;28;20256;-83
2023/10/12 04:07:17;;;;;;;9.03;8.77;;;13.60;99.90;;;;;;5128947;28;20209;-83
2023/10/12 04:09:51;;;;;;;9.13;8.83;;;13.60;99.90;;;;;;5128281;28;20225;-82
2023/10/12 04:12:35;;;;;;;9.20;8.90;;;13.50;99.90;;;;;;5128623;28;20232;-82
2023/10/12 04:15:27;;;;;;;9.50;9.20;;;13.40;99.90;;;;;;5128360;28;20225;-83
2023/10/12 04:17:59;;;;;;;9.20;8.90;;;13.40;99.90;;;;;;5141601;22;20240;-79
2023/10/12 04:20:28;;;;;;;9.40;9.10;;;13.30;99.90;;;;;;5134763;27;20239;-79
2023/10/12 04:23:15;;;;;;;9.40;9.10;;;13.30;99.90;;;;;;5137080;27;20251;-79
2023/10/12 04:25:59;;;;;;;9.33;9.03;;;13.30;99.90;;;;;;5117454;28;20250;-79
2023/10/12 04:28:32;;;;;;;9.40;9.10;;;13.20;99.90;;;;;;5121824;27;20229;-80
2023/10/12 04:31:20;;;;;;;9.17;8.87;;;13.20;99.90;;;;;;5115056;28;20333;-80
2023/10/12 04:33:54;;;;;;;9.00;8.70;;;13.20;99.90;;;;;;5105847;28;20332;-80
2023/10/12 04:36:33;;;;;;;9.10;8.80;;;13.10;99.90;;;;;;5105726;28;20229;-80
2023/10/12 04:39:15;;;;;;;9.00;8.70;;;13.10;99.90;;;;;;5105189;28;20259;-79
2023/10/12 04:41:54;;;;;;;9.03;8.73;;;13.10;99.90;;;;;;5105854;28;20240;-81
2023/10/12 04:44:40;;;;;;;9.20;8.90;;;13.10;99.90;;;;;;5110151;28;20262;-80
2023/10/12 04:47:12;;;;;;;9.10;8.80;;;13.10;99.90;;;;;;5107671;28;20226;-79
2023/10/12 04:49:57;;;;;;;9.00;8.70;;;13.20;99.90;;;;;;5107478;28;20229;-80
2023/10/12 04:55:21;;;;;;;9.10;8.80;;;13.20;99.90;;;;;;5106633;28;20249;-80
2023/10/12 04:58:09;;;;;;;9.00;8.70;;;13.20;99.90;;;;;;5104846;28;20304;-81
2023/10/12 05:00:48;;;;;;;8.47;8.27;;;13.20;99.90;;;;;;5105590;28;20218;-80
2023/10/12 05:03:25;;;;;;;8.60;8.40;;;13.10;99.90;;;;;;5104787;28;20233;-80
2023/10/12 05:06:04;;;;;;;8.70;8.50;;;13.10;99.90;;;;;;5106222;28;20213;-79
2023/10/12 05:08:33;;;;;;;8.50;8.30;;;13.10;99.90;;;;;;5106392;28;20236;-79
2023/10/12 05:11:00;;;;;;;8.70;8.50;;;13.10;99.90;;;;;;5106328;28;20218;-81
2023/10/12 05:13:31;;;;;;;8.70;8.50;;;13.10;99.90;;;;;;5105417;28;20233;-79
2023/10/12 05:16:09;;;;;;;8.80;8.60;;;13.00;99.90;;;;;;5106010;28;20252;-81
2023/10/12 05:18:40;;;;;;;9.00;8.70;;;13.00;99.90;;;;;;5104819;28;20236;-81
2023/10/12 05:21:08;;;;;;;10.00;9.70;;;13.00;99.90;;;;;;5104183;28;20382;-84
2023/10/12 05:23:37;;;;;;;9.80;9.50;;;13.00;99.90;;;;;;5104573;28;20229;-83
2023/10/12 05:31:48;;;;;;;9.43;9.13;;;13.20;99.90;;;;;;5104578;28;20217;-84
2023/10/12 05:34:32;;;;;;;9.60;9.30;;;13.20;99.90;;;;;;5105054;28;20229;-84
2023/10/12 05:39:46;;;;;;;9.93;9.63;;;13.10;99.90;;;;;;5104754;28;20232;-84
2023/10/12 05:42:14;;;;;;;9.73;9.43;;;13.10;99.90;;;;;;5104590;28;20221;-84
2023/10/12 05:44:43;;;;;;;9.80;9.50;;;13.10;99.90;;;;;;5105183;28;20290;-84
2023/10/12 05:47:12;;;;;;;9.50;9.20;;;13.10;99.90;;;;;;5104784;28;20237;-84
2023/10/12 05:49:50;;;;;;;9.60;9.30;;;13.10;99.90;;;;;;5112432;28;20295;-84
2023/10/12 05:52:30;;;;;;;9.50;9.20;;;13.10;99.90;;;;;;5104452;28;20324;-84
2023/10/12 05:54:58;;;;;;;9.40;9.10;;;13.10;99.90;;;;;;5113747;28;20224;-84
2023/10/12 05:57:29;;;;;;;9.63;9.33;;;13.20;99.90;;;;;;5105975;27;20317;-85
2023/10/12 05:59:59;;;;;;;9.40;9.10;;;13.20;99.90;;;;;;5105156;28;20226;-84
2023/10/12 06:02:28;;;;;;;9.50;9.20;;;13.20;99.90;;;;;;5107043;28;20320;-85
2023/10/12 06:04:58;;;;;;;9.37;9.07;;;13.20;99.90;;;;;;5107765;28;20229;-84
2023/10/12 06:07:25;;;;;;;9.30;9.00;;;13.20;99.90;;;;;;5126205;28;20300;-83
2023/10/12 06:09:55;;;;;;;9.30;9.00;;;13.30;99.90;;;;;;5118450;27;20217;-84
2023/10/12 06:12:25;;;;;;;9.60;9.30;;;13.40;99.90;;;;;;5115290;28;20320;-84
2023/10/12 06:14:54;;;;;;;9.40;9.10;;;13.60;99.90;;;;;;5125644;27;20240;-84
2023/10/12 06:17:31;;;;;;;9.60;9.30;;;13.70;99.90;;;;;;5124962;27;20323;-84
2023/10/12 06:20:10;;;;;;;9.60;9.30;;;14.00;99.90;;;;;;5125615;27;20252;-84
2023/10/12 06:22:39;;;;;;;9.90;9.60;;;14.10;99.90;;;;;;5125389;27;20221;-84
2023/10/12 06:25:11;;;;;;;9.80;9.50;;;14.30;99.90;;;;;;5117835;28;20241;-84
2023/10/12 06:27:38;;;;;;;9.90;9.60;;;14.50;99.90;;;;;;5108483;28;20222;-84
2023/10/12 06:30:17;;;;;;;10.10;9.80;;;14.70;99.90;;;;;;5110790;28;20232;-84
2023/10/12 06:32:49;;;;;;;9.85;9.55;;;14.80;99.90;;;;;;5096709;28;20225;-84
2023/10/12 06:35:33;;;;;;;9.88;9.57;;;14.90;99.90;;;;;;5127691;27;20252;-84
2023/10/12 06:46:18;;;;;;;9.30;9.00;;;15.30;99.90;;;;;;5062287;28;20285;-84
2023/10/12 06:48:44;;;;;;;9.43;9.13;;;15.50;99.90;;;;;;5107948;28;20237;-84
2023/10/12 06:51:18;;;;;;;9.55;9.25;;;15.60;99.90;;;;;;5108009;28;20228;-84
2023/10/12 06:53:54;;;;;;;9.40;9.10;;;15.70;99.90;;;;;;5107713;28;20205;-84
2023/10/12 06:56:38;;;;;;;9.88;9.57;;;15.80;99.90;;;;;;5109188;28;20265;-83
2023/10/12 06:59:13;;;;;;;10.00;9.70;;;15.90;99.90;;;;;;5118188;28;20236;-81
2023/10/12 07:01:51;;;;;;;9.80;9.50;;;16.00;99.90;;;;;;5119154;28;20231;-81
2023/10/12 07:04:20;;;;;;;10.10;9.80;;;16.20;99.90;;;;;;5118301;28;20201;-83
2023/10/12 07:06:57;;;;;;;9.88;9.57;;;16.30;99.90;;;;;;5117734;28;20313;-81
2023/10/12 07:09:28;;;;;;;10.07;9.77;;;16.40;99.90;;;;;;5113501;28;20233;-82
2023/10/12 07:11:55;;;;;;;9.70;9.40;;;16.50;99.90;;;;;;5111634;28;20237;-82
2023/10/12 07:14:33;;;;;;;9.80;9.50;;;16.60;99.90;;;;;;5110599;28;20281;-82
2023/10/12 07:19:42;;;;;;;9.85;9.55;;;16.90;99.90;;;;;;5108822;28;20248;-79
2023/10/12 07:22:18;;;;;;;10.32;10.02;;;17.00;99.90;;;;;;5108018;28;20251;-80
2023/10/12 07:24:52;;;;;;;10.20;9.90;;;17.10;99.90;;;;;;5107973;28;20213;-80
2023/10/12 07:27:19;;;;;;;10.13;9.82;;;17.10;99.90;;;;;;5108553;28;21065;-81
2023/10/12 07:29:47;;;;;;;10.02;9.73;;;17.30;99.90;;;;;;5108406;28;20257;-80
2023/10/12 07:32:24;;;;;;;9.65;9.35;;;17.40;99.90;;;;;;5108825;28;20293;-80
2023/10/12 07:34:57;;;;;;;9.93;9.63;;;17.50;99.90;;;;;;5107460;28;20225;-81
2023/10/12 07:37:27;;;;;;;10.00;9.70;;;17.60;99.90;;;;;;5106755;28;20237;-80
2023/10/12 07:39:55;;;;;;;9.85;9.55;;;17.70;99.90;;;;;;5107292;28;20276;-80
2023/10/12 07:42:27;;;;;;;10.05;9.75;;;17.80;99.90;;;;;;5108041;28;20319;-81
2023/10/12 07:44:56;;;;;;;10.13;9.82;;;17.90;99.90;;;;;;5108161;28;20233;-81
2023/10/12 07:47:31;;;;;;;10.13;9.82;;;18.00;99.90;;;;;;5106587;28;20245;-81
2023/10/12 07:50:11;;;;;;;10.13;9.82;;;18.00;99.90;;;;;;5107364;28;20256;-82
2023/10/12 07:52:46;;;;;;;9.90;9.60;;;18.10;99.90;;;;;;5106910;28;20252;-82
2023/10/12 07:55:28;;;;;;;10.00;9.70;;;18.20;99.90;;;;;;5107488;28;20228;-82
2023/10/12 07:57:56;;;;;;;9.98;9.68;;;18.30;99.90;;;;;;5103579;28;20241;-81
2023/10/12 08:00:35;;;;;;;9.90;9.60;;;18.30;99.90;;;;;;5115934;28;20225;-81
2023/10/12 08:03:25;;;;;;;10.00;9.70;;;18.30;99.90;;;;;;5126311;27;20233;-82
2023/10/12 08:05:59;;;;;;;10.40;10.10;;;18.40;99.90;;;;;;5123308;27;20224;-83
2023/10/12 08:08:47;;;;;;;10.10;9.80;;;18.50;99.90;;;;;;5096012;28;20229;-82
2023/10/12 08:14:19;;;;;;;10.57;10.27;;;18.60;99.90;;;;;;5118910;27;20283;-82
2023/10/12 08:17:24;;;;;;;10.40;10.10;;;18.60;99.90;;;;;;5114346;28;20279;-83
2023/10/12 08:19:39;;;;;;;10.40;10.10;;;18.60;99.90;;;;;;5108323;28;20241;-82
2023/10/12 08:22:25;;;;;;;10.48;10.18;;;18.50;99.90;;;;;;5108404;28;20226;-82
2023/10/12 08:24:57;;;;;;;10.40;10.10;;;18.40;99.90;;;;;;5106857;28;20252;-79
2023/10/12 08:27:26;;;;;;;10.38;10.07;;;18.50;99.90;;;;;;5109038;28;20236;-81
2023/10/12 08:30:12;;;;;;;10.35;10.05;;;18.40;99.90;;;;;;5106622;28;20256;-81
2023/10/12 08:32:42;;;;;;;10.30;10.00;;;18.40;99.90;;;;;;5104272;28;20265;-86
2023/10/12 08:35:35;;;;;;;10.35;10.05;;;18.50;99.90;;;;;;5104497;28;20233;-82
2023/10/12 08:38:25;;;;;;;10.23;9.93;;;18.60;99.90;;;;;;5104456;28;20229;-80
2023/10/12 08:43:52;;;;;;;10.50;10.20;;;18.80;99.90;;;;;;5096646;28;20316;-80
2023/10/12 08:46:51;;;;;;;10.38;10.07;;;18.80;99.90;;;;;;5103978;28;20233;-82
2023/10/12 08:49:43;;;;;;;10.43;10.13;;;18.80;99.90;;;;;;5103622;28;20230;-80
2023/10/12 08:52:18;;;;;;;10.20;9.90;;;18.90;99.90;;;;;;5103632;28;20234;-80
2023/10/12 08:55:07;;;;;;;10.18;9.88;;;19.00;99.90;;;;;;5102748;28;20256;-80
2023/10/12 08:57:44;;;;;;;10.48;10.18;;;19.00;99.90;;;;;;5104129;28;20229;-81
2023/10/12 09:00:24;;;;;;;10.43;10.13;;;19.10;99.90;;;;;;5104177;28;20221;-80
2023/10/12 09:02:52;;;;;;;10.45;10.15;;;19.10;99.90;;;;;;5097738;28;20244;-81
2023/10/12 09:08:39;;;;;;;10.30;10.00;;;19.00;99.90;;;;;;5102319;28;20267;-80
2023/10/12 09:10:56;;;;;;;10.40;10.10;;;18.90;99.90;;;;;;5103399;28;20237;-80
2023/10/12 09:13:30;;;;;;;10.27;9.98;;;18.90;99.90;;;;;;5103309;28;20310;-82
2023/10/12 09:18:46;;;;;;;10.10;9.80;;;18.90;99.90;;;;;;5104374;28;20221;-81
2023/10/12 09:24:14;;;;;;;10.20;9.90;;;19.20;99.90;;;;;;5098114;28;20226;-81
2023/10/12 09:26:57;;;;;;;10.10;9.80;;;19.30;99.90;;;;;;5103403;28;20233;-81
2023/10/12 09:29:42;;;;;;;10.00;9.70;;;19.30;99.90;;;;;;5103102;28;20256;-81
2023/10/12 09:37:51;;;;;;;10.05;9.75;;;19.60;99.90;;;;;;5101274;28;20233;-81
2023/10/12 09:40:35;;;;;;;10.25;9.95;;;19.70;99.90;;;;;;5103153;28;20221;-81
2023/10/12 09:43:12;;;;;;;10.23;9.93;;;19.80;99.90;;;;;;5103540;28;20241;-82
2023/10/12 09:45:47;;;;;;;10.27;9.98;;;19.90;99.90;;;;;;5102535;28;20229;-82
2023/10/12 09:48:24;;;;;;;10.15;9.85;;;19.90;99.90;;;;;;5103635;28;20229;-82
2023/10/12 09:50:54;;;;;;;10.30;10.00;;;19.90;99.90;;;;;;5103843;28;20222;-82
2023/10/12 09:53:35;;;;;;;10.02;9.73;;;19.90;99.90;;;;;;5104446;28;20278;-83
2023/10/12 09:56:24;;;;;;;10.25;9.95;;;19.90;99.90;;;;;;5108767;28;20232;-83
2023/10/12 09:58:52;;;;;;;10.20;9.90;;;20.00;99.90;;;;;;5111032;28;20237;-83
2023/10/12 10:01:49;;;;;;;10.07;9.77;;;20.00;99.90;;;;;;5109547;28;20217;-83
2023/10/12 10:04:34;;;;;;;10.25;9.95;;;20.10;99.90;;;;;;5108085;28;20218;-82
2023/10/12 10:07:25;;;;;;;10.32;10.02;;;20.20;99.90;;;;;;5109837;28;20228;-81
2023/10/12 10:10:00;;;;;;;10.05;9.75;;;20.20;99.90;;;;;;5109936;28;20234;-81
2023/10/12 10:12:28;;;;;;;10.07;9.77;;;20.20;99.90;;;;;;5107788;28;20254;-82
2023/10/12 10:15:00;;;;;;;10.25;9.95;;;20.30;99.90;;;;;;5107188;28;20239;-81
2023/10/12 10:17:36;;;;;;;10.02;9.73;;;20.30;99.90;;;;;;5109339;28;20241;-83
2023/10/12 10:23:19;;;;;;;10.27;9.98;;;20.40;99.90;;;;;;5204742;27;20590;-86
2023/10/12 10:26:14;;;;;;;10.07;9.77;;;20.40;99.90;;;;;;5184654;27;20255;-84
2023/10/12 10:28:54;;;;;;;10.23;9.93;;;20.50;99.90;;;;;;5172709;27;20235;-84
2023/10/12 10:31:27;;;;;;;10.13;9.82;;;20.60;99.90;;;;;;5164072;27;20314;-80
2023/10/12 10:34:01;;;;;;;10.30;10.00;;;20.70;99.90;;;;;;5162451;27;20235;-83
2023/10/12 10:36:34;;;;;;;9.90;9.60;;;20.80;99.90;;;;;;5162586;27;20277;-81
2023/10/12 10:39:24;;;;;;;10.15;9.85;;;20.90;99.90;;;;;;5162774;27;20265;-81
2023/10/12 10:41:56;;;;;;;10.32;10.02;;;20.90;99.90;;;;;;5162584;27;20220;-82
2023/10/12 10:44:26;;;;;;;10.02;9.73;;;21.10;99.90;;;;;;5161095;27;20232;-82
2023/10/12 10:46:57;;;;;;;10.23;9.93;;;21.10;99.90;;;;;;5161860;27;20219;-83
2023/10/12 10:49:30;;;;;;;10.20;9.90;;;21.20;99.90;;;;;;5162237;27;20227;-82
2023/10/12 10:54:59;;;;;;;10.10;9.80;;;21.20;99.90;;;;;;5161610;27;20219;-80
2023/10/12 10:57:31;;;;;;;10.05;9.75;;;21.30;99.90;;;;;;5160886;27;20235;-82
2023/10/12 11:00:00;;;;;;;9.68;9.38;;;21.30;99.90;;;;;;5161523;27;20292;-80
2023/10/12 11:02:28;;;;;;;9.93;9.63;;;21.30;99.90;;;;;;5162243;27;20241;-78
2023/10/12 11:05:00;;;;;;;9.88;9.57;;;21.40;99.90;;;;;;5162581;27;20229;-80
2023/10/12 11:07:27;;;;;;;9.80;9.50;;;21.50;99.90;;;;;;5160843;27;20262;-81
2023/10/12 11:10:08;;;;;;;10.20;9.90;;;21.50;99.90;;;;;;5161089;27;20250;-82
2023/10/12 11:12:36;;;;;;;9.75;9.45;;;21.60;99.90;;;;;;5160875;27;20220;-79
2023/10/12 11:15:08;;;;;;;9.68;9.38;;;21.70;99.90;;;;;;5161087;27;20231;-80
2023/10/12 11:17:47;;;;;;;9.70;9.40;;;21.80;99.90;;;;;;5160770;27;20227;-79
2023/10/12 11:20:43;;;;;;;9.50;9.20;;;21.80;99.90;;;;;;5160981;27;20231;-79
2023/10/12 11:23:13;;;;;;;9.70;9.40;;;21.80;99.90;;;;;;5158359;27;20246;-81
2023/10/12 11:25:55;;;;;;;9.77;9.48;;;21.70;99.90;;;;;;5161882;27;20231;-82
2023/10/12 11:28:26;;;;;;;9.80;9.50;;;21.70;99.90;;;;;;5161225;27;20220;-82
2023/10/12 11:31:01;;;;;;;9.90;9.60;;;21.80;99.90;;;;;;5161308;27;20224;-79
2023/10/12 11:33:30;;;;;;;10.00;9.70;;;21.80;99.90;;;;;;5152357;27;20231;-78
2023/10/12 11:36:03;;;;;;;10.30;10.00;;;21.70;99.90;;;;;;5146290;27;20231;-79
2023/10/12 11:38:30;;;;;;;10.00;9.70;;;21.70;99.90;;;;;;5145290;27;20232;-78
2023/10/12 11:41:13;;;;;;;9.90;9.60;;;21.60;99.90;;;;;;5144765;27;20224;-78
2023/10/12 11:43:52;;;;;;;9.98;9.68;;;21.50;99.90;;;;;;5146637;27;20258;-85
2023/10/12 11:46:20;;;;;;;10.00;9.70;;;21.40;99.90;;;;;;5147310;27;20226;-82
2023/10/12 11:49:03;;;;;;;9.90;9.60;;;21.40;99.90;;;;;;5145413;27;20246;-78
2023/10/12 11:51:31;;;;;;;10.00;9.70;;;21.40;99.90;;;;;;5146451;27;20286;-79
2023/10/12 11:53:59;;;;;;;9.82;9.52;;;21.40;99.90;;;;;;5145937;27;20316;-80
2023/10/12 11:56:30;;;;;;;9.85;9.55;;;21.30;99.90;;;;;;5146337;27;20216;-81
2023/10/12 11:58:57;;;;;;;10.30;10.00;;;21.30;99.90;;;;;;5144486;27;20234;-78
2023/10/12 12:01:27;;;;;;;10.45;10.15;;;21.30;99.90;;;;;;5143398;27;20244;-77
2023/10/12 12:03:54;;;;;;;10.50;10.20;;;21.20;99.90;;;;;;5144997;27;20236;-78
2023/10/12 12:06:21;;;;;;;10.20;9.90;;;21.20;99.90;;;;;;5145967;27;20228;-77
2023/10/12 12:08:49;;;;;;;10.07;9.77;;;21.20;99.90;;;;;;5146146;27;20236;-78
2023/10/12 12:11:19;;;;;;;9.95;9.65;;;21.20;99.90;;;;;;5144460;27;20289;-77
2023/10/12 12:13:51;;;;;;;10.10;9.80;;;21.20;99.90;;;;;;5143624;27;20321;-77
2023/10/12 12:16:21;;;;;;;10.10;9.80;;;21.20;99.90;;;;;;5143367;27;20239;-78
2023/10/12 12:18:50;;;;;;;10.10;9.80;;;21.20;99.90;;;;;;5144197;27;20236;-78
2023/10/12 12:21:17;;;;;;;9.95;9.65;;;21.20;99.90;;;;;;5145364;27;20235;-79
2023/10/12 12:23:48;;;;;;;9.85;9.55;;;21.20;99.90;;;;;;5145232;27;20216;-80
2023/10/12 12:26:18;;;;;;;9.55;9.25;;;21.20;99.90;;;;;;5144950;27;20322;-79
2023/10/12 12:28:45;;;;;;;9.55;9.25;;;21.20;99.90;;;;;;5144774;27;20231;-80
2023/10/12 12:31:15;;;;;;;9.40;9.10;;;21.20;99.90;;;;;;5144632;27;20259;-80
2023/10/12 12:33:45;;;;;;;9.70;9.40;;;21.00;99.90;;;;;;5145900;27;20231;-80
2023/10/12 12:36:20;;;;;;;9.75;9.45;;;20.90;99.90;;;;;;5145098;27;20283;-79
2023/10/12 12:38:57;;;;;;;9.80;9.50;;;20.70;99.90;;;;;;5144236;27;20235;-79
2023/10/12 12:41:24;;;;;;;9.70;9.40;;;20.60;99.90;;;;;;5143719;27;20232;-79
2023/10/12 12:43:52;;;;;;;9.65;9.35;;;20.50;99.90;;;;;;5143197;27;20223;-80
2023/10/12 12:46:22;;;;;;;9.63;9.32;;;20.50;99.90;;;;;;5144868;27;20304;-78
2023/10/12 12:48:51;;;;;;;9.60;9.30;;;20.40;99.90;;;;;;5144916;27;20296;-79
2023/10/12 12:51:19;;;;;;;9.63;9.32;;;20.30;99.90;;;;;;5144387;27;20295;-78
2023/10/12 12:53:48;;;;;;;10.00;9.70;;;20.20;99.90;;;;;;5144094;27;20291;-77
2023/10/12 12:56:15;;;;;;;9.90;9.60;;;20.20;99.90;;;;;;5143520;27;20250;-78
2023/10/12 12:58:47;;;;;;;9.90;9.60;;;20.10;99.90;;;;;;5143751;27;20227;-80
2023/10/12 13:01:16;;;;;;;9.70;9.40;;;20.10;99.90;;;;;;5144490;27;20995;-77
2023/10/12 13:03:47;;;;;;;9.38;9.07;;;20.10;99.90;;;;;;5144926;27;20260;-80
2023/10/12 13:06:16;;;;;;;9.90;9.60;;;20.20;99.90;;;;;;5146746;27;20223;-79
2023/10/12 13:08:43;;;;;;;9.60;9.30;;;20.20;99.90;;;;;;5148319;27;20232;-79
2023/10/12 13:11:11;;;;;;;9.63;9.32;;;20.20;99.90;;;;;;5126676;27;20228;-79
2023/10/12 13:13:41;;;;;;;9.70;9.40;;;20.30;99.90;;;;;;5129731;28;20217;-83
2023/10/12 13:16:12;;;;;;;9.50;9.20;;;20.20;99.90;;;;;;5128736;27;20233;-79
2023/10/12 13:18:47;;;;;;;9.50;9.20;;;20.30;99.90;;;;;;5125353;27;20232;-80
2023/10/12 13:21:17;;;;;;;9.57;9.27;;;20.30;99.90;;;;;;5130672;27;20231;-80
2023/10/12 13:23:45;;;;;;;9.70;9.40;;;20.40;99.90;;;;;;5142842;27;20223;-80
2023/10/12 13:26:14;;;;;;;9.80;9.50;;;20.40;99.90;;;;;;5140870;27;20315;-81
2023/10/12 13:28:41;;;;;;;9.63;9.32;;;20.40;99.90;;;;;;5131626;27;20239;-80
2023/10/12 13:31:10;;;;;;;9.73;9.43;;;20.30;99.90;;;;;;5123969;27;20287;-80
2023/10/12 13:33:38;;;;;;;9.70;9.40;;;20.30;99.90;;;;;;5143933;27;20228;-79
2023/10/12 13:36:08;;;;;;;10.07;9.77;;;20.30;99.90;;;;;;5129235;27;20260;-80
2023/10/12 13:38:37;;;;;;;9.82;9.52;;;20.20;99.90;;;;;;5144964;27;20227;-80
2023/10/12 13:41:05;;;;;;;9.95;9.65;;;20.20;99.90;;;;;;5146029;27;20228;-80
2023/10/12 13:43:34;;;;;;;9.88;9.57;;;20.10;99.90;;;;;;5135863;27;20290;-80
2023/10/12 13:46:07;;;;;;;9.60;9.30;;;20.00;99.90;;;;;;5144015;27;20239;-79
2023/10/12 13:48:37;;;;;;;9.88;9.57;;;20.00;99.90;;;;;;5127629;27;20239;-80
2023/10/12 13:51:12;;;;;;;9.63;9.32;;;19.90;99.90;;;;;;5135896;27;20254;-80
2023/10/12 13:53:41;;;;;;;9.55;9.25;;;19.90;99.90;;;;;;5124849;27;20217;-79
2023/10/12 13:56:11;;;;;;;9.43;9.13;;;19.80;99.90;;;;;;5132171;27;20232;-80
2023/10/12 13:58:40;;;;;;;9.32;9.02;;;19.70;99.90;;;;;;5135492;27;20232;-79
2023/10/12 14:01:14;;;;;;;9.55;9.25;;;19.60;99.90;;;;;;5135083;27;20318;-80
2023/10/12 14:03:44;;;;;;;9.60;9.30;;;19.40;99.90;;;;;;5144020;27;20240;-83
2023/10/12 14:06:13;;;;;;;9.60;9.30;;;19.40;99.90;;;;;;5136690;27;20224;-81
2023/10/12 14:08:41;;;;;;;9.50;9.20;;;19.30;99.90;;;;;;5135016;27;20322;-81
2023/10/12 14:11:17;;;;;;;9.60;9.30;;;19.20;99.90;;;;;;5143706;27;20232;-81
2023/10/12 14:13:46;;;;;;;9.50;9.20;;;19.10;99.90;;;;;;5129815;27;20237;-81
2023/10/12 14:16:16;;;;;;;9.23;8.93;;;19.10;99.90;;;;;;5140053;27;20231;-82
2023/10/12 14:18:49;;;;;;;9.60;9.30;;;19.00;99.90;;;;;;5134613;27;20259;-82
2023/10/12 14:21:19;;;;;;;9.63;9.32;;;19.00;99.90;;;;;;5144197;27;20235;-80
2023/10/12 14:23:48;;;;;;;9.60;9.30;;;19.00;99.90;;;;;;5144652;27;20232;-80
2023/10/12 14:26:18;;;;;;;9.63;9.32;;;19.00;99.90;;;;;;5144519;27;20224;-78
2023/10/12 14:28:47;;;;;;;9.73;9.43;;;19.10;99.90;;;;;;5143681;27;20232;-79
2023/10/12 14:31:14;;;;;;;9.52;9.23;;;19.10;99.90;;;;;;5142708;27;20232;-79
2023/10/12 14:33:42;;;;;;;9.85;9.55;;;19.10;99.90;;;;;;5142050;27;20232;-79
2023/10/12 14:36:10;;;;;;;9.35;9.05;;;19.20;99.90;;;;;;5122885;27;20232;-79
2023/10/12 14:38:41;;;;;;;9.40;9.10;;;19.20;99.90;;;;;;5122329;28;20293;-79
2023/10/12 14:41:09;;;;;;;9.23;8.93;;;19.20;99.90;;;;;;5122608;28;20220;-79
2023/10/12 14:43:37;;;;;;;9.20;8.90;;;19.30;99.90;;;;;;5120761;28;20221;-78
2023/10/12 14:46:04;;;;;;;9.05;8.75;;;19.30;99.90;;;;;;5122225;27;20242;-78
2023/10/12 14:48:33;;;;;;;8.90;8.70;;;19.20;99.90;;;;;;5121595;28;20267;-80
2023/10/12 14:51:07;;;;;;;9.02;8.80;;;19.10;99.90;;;;;;5122028;27;20229;-79
2023/10/12 14:53:35;;;;;;;9.13;8.82;;;19.10;99.90;;;;;;5122792;27;20228;-79
2023/10/12 14:56:04;;;;;;;9.70;9.40;;;19.10;99.90;;;;;;5122237;28;20229;-79